Sunday, May 27, 2018, 3:33 PM GMT
Back to Local

CWNE, North Point, Prince Edward Island

Location: , , Canada Lat: 47.083
Local Time: 3:33 PM GMT (15:33 GMT) Lon: -64
Time Zone: GMT Elev: 49 ft

Show me the last for .
Show Coded

Time T Td Feel RH Dir Speed Gust Alt SLP Vis Weather Sky Remarks
2018-05-27 15:00 48 42 47 79 330° 3 - - 30.31 0 None
2018-05-27 14:00 48 42 45 79 290° 7 - - 30.31 0 None
2018-05-27 13:00 48 44 45 86 290° 6 - - 30.31 0 None
2018-05-27 12:00 46 42 43 84 270° 7 - - 30.30 0 None
2018-05-27 11:00 45 41 41 86 280° 7 - - 30.28 0 None
2018-05-27 10:00 42 41 38 97 250° 6 - - 30.27 0 None
2018-05-27 09:00 42 40 38 93 240° 6 - - 30.25 0 None
2018-05-27 08:00 42 39 - 87 310° 2 - - 30.21 0 None
2018-05-27 07:00 40 38 35 93 30° 8 - - 30.18 0 None
2018-05-27 06:00 42 39 36 87 30° 10 - - 30.16 0 None
2018-05-27 05:00 42 39 36 87 40° 12 - - 30.14 0 None
2018-05-27 04:00 42 39 35 88 40° 13 - - 30.13 0 None
2018-05-27 03:00 42 38 35 85 20° 14 - - 30.11 0 None
2018-05-27 02:00 42 39 34 87 30° 16 - - 30.08 0 Peak wind: 20 mph (18 kts) from 30° at 03 min
2018-05-27 01:00 42 38 34 87 30° 16 - - 30.06 0 None
2018-05-27 00:00 42 38 35 85 20° 14 - - 30.02 0 None
2018-05-26 23:00 43 38 36 83 30° 13 - - 29.98 0 None
2018-05-26 22:00 42 40 36 91 30° 10 - - 29.94 0 None
2018-05-26 21:00 42 40 35 90 40° 15 - - 29.91 0 None
2018-05-26 20:00 45 41 39 86 50° 12 - - 29.86 0 Peak wind: 19 mph (17 kts) from 30° at 04 min
2018-05-26 19:00 43 39 36 87 30° 14 - - 29.83 0 None
2018-05-26 18:00 43 40 37 88 40° 10 - - 29.80 0 None
2018-05-26 17:00 41 38 34 90 20° 14 - - 29.77 0 None
2018-05-26 16:00 40 39 32 96 30° 15 - - 29.74 0 None

Support USWX by starting your Amazon purchase here.